Time;durP1;ratioP1;P1;durP2;ratioP2;P2;SDS_P1;SDS_P2;PMS_P1;PMS_P2;Temp;Humidity;BMP_temperature;BMP_pressure;BME280_temperature;BME280_humidity;BME280_pressure;Samples;Min_cycle;Max_cycle;Signal;HPM_P1;HPM_P2
2021/08/25 00:02:15;;;;;;;6.60;2.97;;;;;;;19.57;61.32;98509.94;5119970;28;20043;-94
2021/08/25 00:04:41;;;;;;;8.75;2.92;;;;;;;19.68;62.06;98541.59;5119528;28;20476;-94
2021/08/25 00:07:08;;;;;;;4.90;3.15;;;;;;;19.56;62.72;98528.94;5118321;28;20039;-94
2021/08/25 00:09:35;;;;;;;6.68;3.25;;;;;;;19.49;62.96;98531.19;5117810;28;20031;-94
2021/08/25 00:12:01;;;;;;;5.95;3.47;;;;;;;19.41;63.53;98534.41;5118863;28;20055;-93
2021/08/25 00:14:27;;;;;;;5.10;3.22;;;;;;;19.39;64.38;98547.13;5120052;28;20499;-95
2021/08/25 00:16:54;;;;;;;8.60;3.40;;;;;;;19.38;63.70;98531.91;5118475;28;20044;-94
2021/08/25 00:19:20;;;;;;;5.65;3.60;;;;;;;19.44;64.04;98544.13;5117818;28;20067;-94
2021/08/25 00:21:46;;;;;;;6.05;3.15;;;;;;;19.28;64.01;98523.56;5118847;28;20048;-92
2021/08/25 00:24:12;;;;;;;5.90;3.13;;;;;;;19.28;64.52;98528.09;5120093;28;20055;-94
2021/08/25 00:26:38;;;;;;;6.82;3.30;;;;;;;19.27;64.72;98526.38;5120428;28;20082;-94
2021/08/25 00:29:04;;;;;;;5.45;3.40;;;;;;;19.25;64.27;98517.50;5111341;28;20075;-95
2021/08/25 00:31:30;;;;;;;8.93;4.07;;;;;;;19.32;64.38;98524.22;5116218;28;20047;-95
2021/08/25 00:33:59;;;;;;;6.10;3.30;;;;;;;19.39;64.59;98535.47;5119144;27;20637;-94
2021/08/25 00:36:24;;;;;;;6.90;3.47;;;;;;;19.23;64.89;98514.06;5120013;28;20416;-94
2021/08/25 00:38:50;;;;;;;6.63;3.45;;;;;;;19.37;65.39;98537.41;5115158;28;20044;-96
2021/08/25 00:41:16;;;;;;;7.03;3.67;;;;;;;19.33;65.21;98515.19;5115432;28;20067;-95
2021/08/25 00:43:42;;;;;;;8.05;3.72;;;;;;;19.32;66.16;98531.44;5118065;28;20040;-94
2021/08/25 00:46:08;;;;;;;6.22;3.53;;;;;;;19.00;66.28;98502.97;5119751;28;20081;-95
2021/08/25 00:48:34;;;;;;;6.35;3.83;;;;;;;19.08;66.62;98530.28;5118038;28;20054;-95
2021/08/25 00:51:02;;;;;;;11.13;3.90;;;;;;;19.05;68.74;98541.25;5120936;28;20073;-94
2021/08/25 00:53:28;;;;;;;7.22;3.58;;;;;;;18.90;69.26;98549.47;5124574;28;20075;-92
2021/08/25 00:55:58;;;;;;;5.63;3.60;;;;;;;18.76;69.23;98536.84;5122022;28;20415;-93
2021/08/25 00:58:26;;;;;;;9.10;4.68;;;;;;;18.75;69.07;98538.69;5117050;28;20054;-95
2021/08/25 01:04:04;;;;;;;5.20;3.28;;;;;;;19.12;66.06;98548.94;5106947;27;20364;-92
2021/08/25 01:06:31;;;;;;;5.10;3.05;;;;;;;19.17;65.92;98533.31;5068786;28;20056;-93
2021/08/25 01:09:02;;;;;;;6.32;3.10;;;;;;;19.28;66.28;98538.91;5075127;28;20052;-95
2021/08/25 01:11:28;;;;;;;6.72;3.40;;;;;;;19.16;67.51;98540.56;5071571;28;20098;-92
2021/08/25 01:13:54;;;;;;;6.60;3.10;;;;;;;19.05;67.73;98529.63;5071654;28;20410;-94
2021/08/25 01:16:21;;;;;;;6.45;3.13;;;;;;;18.93;68.24;98544.75;5072928;28;20052;-94
2021/08/25 01:18:47;;;;;;;5.25;3.17;;;;;;;18.84;69.44;98539.97;5067165;28;20044;-96
2021/08/25 01:21:16;;;;;;;5.65;3.15;;;;;;;18.84;69.30;98558.81;5073251;28;20064;-95
2021/08/25 01:23:44;;;;;;;5.95;2.72;;;;;;;18.91;68.78;98584.41;5067822;28;20535;-94
2021/08/25 01:26:11;;;;;;;7.15;3.35;;;;;;;18.70;71.00;98570.44;5076889;28;20041;-93
2021/08/25 01:28:47;;;;;;;5.70;2.95;;;;;;;18.50;71.92;98569.03;5074695;28;20045;-93
2021/08/25 01:31:15;;;;;;;6.82;2.88;;;;;;;18.41;71.92;98559.69;5074166;28;20473;-94
2021/08/25 01:33:41;;;;;;;4.88;2.90;;;;;;;18.31;71.99;98553.16;5075068;28;20044;-93
2021/08/25 01:36:13;;;;;;;6.60;2.97;;;;;;;18.47;71.92;98556.59;5075626;28;20039;-94
2021/08/25 01:38:47;;;;;;;4.78;2.90;;;;;;;18.48;72.24;98542.19;5075568;28;20402;-92
2021/08/25 01:41:15;;;;;;;5.13;2.58;;;;;;;18.58;71.87;98544.28;5075975;28;20059;-94
2021/08/25 01:43:40;;;;;;;4.60;2.70;;;;;;;18.67;72.07;98560.75;5076244;28;20036;-91
2021/08/25 01:46:06;;;;;;;5.70;2.90;;;;;;;18.42;72.78;98528.25;5075045;28;20106;-92
2021/08/25 01:48:35;;;;;;;6.85;2.60;;;;;;;18.32;73.02;98524.38;5075982;28;20466;-92
2021/08/25 01:51:02;;;;;;;4.60;2.58;;;;;;;18.45;72.76;98536.13;5075526;28;20055;-92
2021/08/25 01:53:28;;;;;;;4.10;2.72;;;;;;;18.38;74.46;98522.19;5075995;28;20048;-93
2021/08/25 01:55:53;;;;;;;5.60;2.90;;;;;;;18.34;74.59;98504.47;5076443;28;20090;-93
2021/08/25 01:58:19;;;;;;;5.38;2.70;;;;;;;18.23;75.58;98498.91;5077282;28;20509;-93
2021/08/25 02:00:45;;;;;;;5.28;2.78;;;;;;;18.13;76.46;98486.97;5076757;28;20041;-93
2021/08/25 02:03:14;;;;;;;8.63;3.13;;;;;;;18.22;74.78;98497.19;5076138;28;20170;-95
2021/08/25 02:05:44;;;;;;;5.28;3.08;;;;;;;18.12;74.49;98482.59;5075597;28;20047;-93
2021/08/25 02:08:11;;;;;;;8.85;3.60;;;;;;;17.93;76.80;98494.47;5074578;28;20039;-93
2021/08/25 02:10:39;;;;;;;8.23;3.53;;;;;;;17.65;79.12;98514.06;5074477;28;20493;-94
2021/08/25 02:13:06;;;;;;;6.38;3.97;;;;;;;17.49;79.58;98516.81;5074582;28;20037;-92
2021/08/25 02:15:32;;;;;;;5.47;3.40;;;;;;;17.40;79.70;98502.09;5061658;28;20049;-96
2021/08/25 02:17:59;;;;;;;6.47;3.70;;;;;;;17.40;79.64;98503.94;5061442;28;20045;-94
2021/08/25 02:20:25;;;;;;;6.28;3.25;;;;;;;17.61;78.20;98520.63;5061663;28;20045;-93
2021/08/25 02:22:53;;;;;;;6.65;3.30;;;;;;;17.59;77.94;98493.81;5062926;28;20049;-93
2021/08/25 02:25:19;;;;;;;9.25;3.50;;;;;;;17.82;77.22;98522.03;5063550;28;20490;-94
2021/08/25 02:27:46;;;;;;;6.45;3.28;;;;;;;17.62;78.07;98507.06;5062958;28;20124;-95
2021/08/25 02:30:12;;;;;;;6.30;3.30;;;;;;;17.48;79.07;98508.84;5063230;28;20056;-94
2021/08/25 02:32:42;;;;;;;7.38;3.40;;;;;;;17.36;79.30;98500.56;5065041;28;20123;-94
2021/08/25 02:35:09;;;;;;;6.43;3.42;;;;;;;17.51;79.05;98536.41;5065178;28;20041;-94
2021/08/25 02:37:38;;;;;;;10.18;3.60;;;;;;;17.51;76.01;98497.91;5063337;28;20048;-94
2021/08/25 02:40:08;;;;;;;;;;;;;;;17.91;75.25;98538.56;5063706;28;20055;-95
2021/08/25 02:42:35;;;;;;;5.70;3.38;;;;;;;17.91;75.59;98527.81;5063323;28;19921;-94
2021/08/25 02:45:02;;;;;;;5.28;2.70;;;;;;;17.80;74.79;98501.53;5064597;28;20083;-95
2021/08/25 02:47:28;;;;;;;4.85;3.15;;;;;;;18.04;74.17;98528.78;5061829;28;20037;-95
2021/08/25 02:49:54;;;;;;;4.35;2.80;;;;;;;18.09;72.99;98509.69;5063067;28;20051;-93
2021/08/25 02:52:20;;;;;;;5.05;2.80;;;;;;;18.13;72.81;98513.91;5061063;28;20041;-94
2021/08/25 02:54:46;;;;;;;5.00;2.60;;;;;;;18.20;72.61;98512.56;5059906;28;20048;-94
2021/08/25 02:57:13;;;;;;;5.47;2.90;;;;;;;18.20;71.42;98508.06;5062281;28;20090;-94
2021/08/25 02:59:39;;;;;;;4.82;2.70;;;;;;;18.44;71.16;98519.09;5062060;28;20045;-93
2021/08/25 03:02:05;;;;;;;6.28;2.95;;;;;;;18.32;71.95;98508.25;5060975;28;20048;-95
2021/08/25 03:04:31;;;;;;;4.15;2.53;;;;;;;18.24;71.21;98498.81;5060241;28;20068;-93
2021/08/25 03:06:57;;;;;;;5.30;2.75;;;;;;;18.16;72.92;98505.66;5060380;28;20048;-93
2021/08/25 03:09:23;;;;;;;6.05;2.88;;;;;;;18.07;73.22;98496.31;5062125;28;20056;-94
2021/08/25 03:11:50;;;;;;;4.78;2.75;;;;;;;17.85;74.30;98477.97;5062605;28;20580;-94
2021/08/25 03:14:17;;;;;;;6.93;3.38;;;;;;;17.90;75.17;98500.06;5060833;28;20033;-94
2021/08/25 03:16:45;;;;;;;5.82;2.67;;;;;;;17.78;73.62;98466.69;5059885;28;20047;-95
2021/08/25 03:19:11;;;;;;;5.40;2.77;;;;;;;18.09;72.22;98489.03;5060396;28;20045;-94
2021/08/25 03:21:41;;;;;;;4.10;2.92;;;;;;;18.04;73.59;98478.56;5058524;28;20041;-95
2021/08/25 03:24:10;;;;;;;5.75;3.10;;;;;;;17.90;73.75;98457.00;5060490;28;20140;-94
2021/08/25 03:26:35;;;;;;;;;;;;;;;18.10;73.62;98476.44;5062458;28;20102;-94
2021/08/25 03:29:02;;;;;;;4.78;2.70;;;;;;;17.99;71.76;98434.91;5060511;28;19979;-96
2021/08/25 03:31:30;;;;;;;3.80;2.42;;;;;;;18.12;71.42;98429.63;5060099;28;20075;-95
2021/08/25 03:33:56;;;;;;;;;;;;;;;18.30;71.95;98464.41;5064440;28;20053;-95
2021/08/25 03:36:22;;;;;;;5.90;2.60;;;;;;;18.01;72.55;98424.06;5061837;28;19920;-95
2021/08/25 03:38:49;;;;;;;4.18;2.72;;;;;;;18.15;71.35;98434.81;5061112;28;20581;-96
2021/08/25 03:41:15;;;;;;;4.07;2.55;;;;;;;18.25;71.16;98452.09;5059640;28;20060;-94
2021/08/25 03:43:41;;;;;;;3.88;2.40;;;;;;;18.45;69.55;98450.84;5060168;28;20098;-94
2021/08/25 03:46:07;;;;;;;4.15;2.58;;;;;;;18.36;69.85;98437.94;5061480;28;20135;-95
2021/08/25 03:48:34;;;;;;;4.65;2.70;;;;;;;18.38;70.34;98452.19;5061128;28;20052;-93
2021/08/25 03:51:00;;;;;;;3.80;2.50;;;;;;;18.30;70.28;98440.19;5061172;28;20451;-93
2021/08/25 03:53:26;;;;;;;4.00;2.70;;;;;;;18.18;70.42;98434.63;5059790;28;20044;-94
2021/08/25 03:55:52;;;;;;;4.45;2.45;;;;;;;18.26;71.11;98459.22;5060042;28;20041;-93
2021/08/25 03:58:18;;;;;;;4.03;2.80;;;;;;;18.13;72.04;98458.28;5060289;28;20041;-94
2021/08/25 04:00:47;;;;;;;3.83;2.33;;;;;;;17.93;72.10;98439.81;5060441;28;20041;-94
2021/08/25 04:03:12;;;;;;;5.03;2.80;;;;;;;17.93;73.44;98464.03;5060322;28;20049;-95
2021/08/25 04:05:40;;;;;;;4.68;2.70;;;;;;;17.72;74.20;98455.41;5059691;28;20037;-93
2021/08/25 04:08:06;;;;;;;4.68;3.10;;;;;;;17.54;74.81;98458.25;5060806;28;20053;-93
2021/08/25 04:10:32;;;;;;;6.20;2.97;;;;;;;17.50;75.67;98466.59;5059902;28;20553;-95
2021/08/25 04:12:58;;;;;;;6.20;3.60;;;;;;;17.52;75.75;98478.13;5058303;28;20037;-94
2021/08/25 04:15:24;;;;;;;6.38;3.97;;;;;;;17.49;75.46;98479.19;5058447;28;20033;-95
2021/08/25 04:17:51;;;;;;;8.15;3.65;;;;;;;17.49;76.27;98499.84;5059955;28;20074;-93
2021/08/25 04:20:16;;;;;;;6.80;4.15;;;;;;;17.47;76.70;98499.06;5057487;28;20054;-95
2021/08/25 04:22:47;;;;;;;6.68;3.90;;;;;;;17.27;76.96;98479.59;5059310;28;20033;-92
2021/08/25 04:25:13;;;;;;;6.65;3.50;;;;;;;17.26;77.24;98485.91;5058356;28;20045;-93
2021/08/25 04:27:39;;;;;;;7.65;3.55;;;;;;;17.37;77.38;98513.06;5059256;28;20051;-94
2021/08/25 04:30:05;;;;;;;5.97;3.40;;;;;;;17.17;77.37;98489.16;5058830;28;20045;-94
2021/08/25 04:32:31;;;;;;;6.18;3.75;;;;;;;17.29;77.79;98503.72;5056721;28;20501;-94
2021/08/25 04:34:58;;;;;;;6.80;3.45;;;;;;;17.12;77.36;98481.38;5060472;28;20087;-94
2021/08/25 04:37:24;;;;;;;6.65;3.33;;;;;;;17.09;77.58;98480.66;5060415;28;20045;-92
2021/08/25 04:39:54;;;;;;;7.50;4.07;;;;;;;17.20;77.23;98499.75;5059131;28;20106;-92
2021/08/25 04:42:20;;;;;;;6.93;3.53;;;;;;;17.15;77.13;98489.22;5059352;28;20045;-93
2021/08/25 04:44:46;;;;;;;7.75;4.22;;;;;;;17.17;76.91;98481.94;5060955;28;20075;-94
2021/08/25 04:47:12;;;;;;;4.97;3.42;;;;;;;17.35;77.16;98504.22;5058466;28;20049;-93
2021/08/25 04:49:38;;;;;;;6.97;3.80;;;;;;;17.34;77.40;98523.97;5058796;28;20048;-92
2021/08/25 04:52:04;;;;;;;8.02;3.75;;;;;;;17.23;77.37;98505.78;5059476;28;20057;-94
2021/08/25 04:54:32;;;;;;;9.48;4.40;;;;;;;17.21;77.16;98496.09;5057746;28;20043;-96
2021/08/25 04:57:00;;;;;;;8.03;3.87;;;;;;;17.39;76.29;98508.44;5058637;28;20044;-94
2021/08/25 04:59:29;;;;;;;7.50;3.95;;;;;;;17.37;76.64;98502.31;5057615;28;20763;-95
2021/08/25 05:01:54;;;;;;;;;;;;;;;17.61;76.32;98532.22;5054505;28;20407;-95
2021/08/25 05:04:20;;;;;;;8.35;3.55;;;;;;;17.62;75.33;98523.19;5056631;28;19920;-94
2021/08/25 05:06:46;;;;;;;6.53;3.42;;;;;;;17.64;74.93;98499.78;5059207;28;20060;-94
2021/08/25 05:09:12;;;;;;;15.27;3.95;;;;;;;17.97;73.85;98522.91;5059922;28;20069;-94
2021/08/25 05:11:38;;;;;;;7.75;3.30;;;;;;;17.94;72.89;98503.44;5057926;28;20556;-94
2021/08/25 05:14:05;;;;;;;6.45;3.20;;;;;;;18.08;72.77;98502.56;5059648;28;20045;-94
2021/08/25 05:16:31;;;;;;;5.25;3.03;;;;;;;18.15;72.02;98490.44;5056999;28;20048;-95
2021/08/25 05:18:57;;;;;;;5.95;3.10;;;;;;;18.32;71.51;98506.41;5057665;28;20068;-94
2021/08/25 05:21:23;;;;;;;7.47;3.65;;;;;;;18.41;71.64;98511.22;5057688;28;20049;-93
2021/08/25 05:23:49;;;;;;;4.68;2.97;;;;;;;18.49;71.62;98532.28;5059403;28;20045;-94
2021/08/25 05:26:15;;;;;;;5.55;3.13;;;;;;;18.51;72.77;98541.13;5060273;28;20111;-95
2021/08/25 05:28:41;;;;;;;6.55;3.30;;;;;;;18.49;73.98;98540.34;5055930;28;20513;-93
2021/08/25 05:31:12;;;;;;;7.30;3.30;;;;;;;18.37;73.71;98522.28;5055890;28;20049;-96
2021/08/25 05:33:37;;;;;;;5.80;3.20;;;;;;;18.45;73.82;98542.38;5057346;28;20159;-95
2021/08/25 05:36:04;;;;;;;5.35;3.47;;;;;;;18.51;73.72;98541.13;5057077;28;20052;-94
2021/08/25 05:38:30;;;;;;;5.38;3.30;;;;;;;18.52;73.72;98524.00;5057759;28;20064;-94
2021/08/25 05:40:55;;;;;;;9.00;3.55;;;;;;;18.43;73.36;98533.53;5058973;28;20048;-92
2021/08/25 05:43:22;;;;;;;6.78;3.67;;;;;;;18.45;73.72;98528.94;5059281;28;20043;-96
2021/08/25 05:45:48;;;;;;;8.10;3.92;;;;;;;18.49;73.82;98518.81;5059185;28;20048;-94
2021/08/25 05:48:15;;;;;;;7.50;3.63;;;;;;;18.63;73.96;98547.56;5058461;28;20037;-95
2021/08/25 05:50:44;;;;;;;7.03;3.47;;;;;;;18.75;72.51;98527.06;5062151;28;20124;-93
2021/08/25 05:53:10;;;;;;;6.85;3.67;;;;;;;19.02;72.21;98560.34;5060659;28;20128;-94
2021/08/25 05:55:37;;;;;;;7.10;3.53;;;;;;;19.05;71.04;98546.66;5059248;28;20100;-95
2021/08/25 05:58:03;;;;;;;8.30;3.67;;;;;;;19.22;71.28;98536.59;5058555;28;20091;-95
2021/08/25 06:00:33;;;;;;;6.45;3.55;;;;;;;19.43;69.82;98547.75;5058018;28;20505;-96
2021/08/25 06:02:59;;;;;;;7.22;3.55;;;;;;;19.62;71.28;98563.59;5057467;28;20530;-95
2021/08/25 06:05:27;;;;;;;5.63;3.03;;;;;;;19.57;69.60;98528.84;5058712;28;20044;-95
2021/08/25 06:07:53;;;;;;;5.88;3.70;;;;;;;19.80;70.17;98542.59;5057498;28;20514;-95
2021/08/25 06:10:19;;;;;;;7.55;3.75;;;;;;;20.05;69.35;98560.69;5057940;28;20033;-94
2021/08/25 06:12:45;;;;;;;5.63;3.72;;;;;;;20.01;68.25;98530.34;5057599;28;20044;-94
2021/08/25 06:15:11;;;;;;;8.07;3.50;;;;;;;20.14;68.05;98546.53;5058056;28;20048;-95
2021/08/25 06:17:37;;;;;;;5.57;3.55;;;;;;;20.09;68.61;98532.50;5058792;28;20420;-95
2021/08/25 06:20:04;;;;;;;9.32;3.95;;;;;;;20.26;67.46;98555.63;5059081;28;20033;-95
2021/08/25 06:22:32;;;;;;;8.93;3.67;;;;;;;20.23;68.14;98543.22;5057686;28;20045;-95
2021/08/25 06:24:58;;;;;;;6.57;3.33;;;;;;;20.29;67.03;98529.25;5057588;28;20071;-96
2021/08/25 06:27:24;;;;;;;7.50;3.78;;;;;;;20.42;66.45;98547.31;5059123;28;20052;-95
2021/08/25 06:29:50;;;;;;;8.00;3.60;;;;;;;20.61;65.98;98536.94;5059351;28;20045;-95
2021/08/25 06:32:17;;;;;;;8.27;3.88;;;;;;;20.82;65.29;98529.13;5058714;28;20381;-94
2021/08/25 06:34:43;;;;;;;11.82;4.03;;;;;;;21.03;65.03;98552.84;5057764;28;20114;-94
2021/08/25 06:37:09;;;;;;;6.80;3.70;;;;;;;20.99;64.72;98527.91;5057226;28;20498;-94
2021/08/25 06:39:38;;;;;;;10.98;3.38;;;;;;;20.68;65.89;98527.41;5058019;28;20041;-95
2021/08/25 06:42:05;;;;;;;6.47;3.83;;;;;;;20.87;66.16;98542.31;5057717;28;20588;-95
2021/08/25 06:44:32;;;;;;;9.68;4.40;;;;;;;20.79;66.89;98547.41;5057420;28;20517;-94
2021/08/25 06:47:00;;;;;;;6.90;3.63;;;;;;;20.85;66.32;98533.44;5058011;28;20564;-94
2021/08/25 06:49:27;;;;;;;7.32;3.90;;;;;;;20.87;66.13;98542.31;5058724;28;20053;-95
2021/08/25 06:51:52;;;;;;;9.85;4.18;;;;;;;21.16;64.65;98559.06;5057271;28;20037;-94
2021/08/25 06:54:18;;;;;;;9.65;4.10;;;;;;;21.09;65.21;98538.88;5055506;28;20044;-95
2021/08/25 06:56:46;;;;;;;8.23;4.82;;;;;;;21.11;65.75;98558.56;5059588;28;20087;-95
2021/08/25 06:59:12;;;;;;;7.32;4.00;;;;;;;21.04;65.74;98566.25;5059665;28;20045;-94
2021/08/25 07:01:38;;;;;;;8.95;3.70;;;;;;;21.40;64.26;98550.97;5057783;28;20588;-93
2021/08/25 07:04:04;;;;;;;8.05;4.30;;;;;;;21.13;64.70;98551.22;5058771;28;20111;-94
2021/08/25 07:06:30;;;;;;;7.13;4.30;;;;;;;21.30;64.85;98566.19;5059192;28;20045;-95
2021/08/25 07:08:56;;;;;;;10.73;4.50;;;;;;;21.53;63.56;98569.88;5057687;28;20063;-95
2021/08/25 07:11:21;;;;;;;8.07;4.70;;;;;;;21.41;64.46;98535.63;5057691;28;20057;-94
2021/08/25 07:13:53;;;;;;;10.05;4.55;;;;;;;21.31;64.98;98530.03;5059311;28;20052;-95
2021/08/25 07:16:19;;;;;;;10.70;4.72;;;;;;;21.63;64.71;98545.72;5057202;28;20065;-94
2021/08/25 07:18:47;;;;;;;9.52;5.00;;;;;;;21.90;65.33;98561.69;5057747;28;20045;-94
2021/08/25 07:21:13;;;;;;;10.95;4.45;;;;;;;21.81;63.92;98551.56;5056850;28;20045;-95
2021/08/25 07:23:44;;;;;;;7.30;4.40;;;;;;;22.12;61.90;98544.63;5057385;28;20049;-94
2021/08/25 07:26:10;;;;;;;9.05;4.63;;;;;;;22.29;60.63;98563.19;5057867;28;20152;-92
2021/08/25 07:28:43;;;;;;;10.80;4.60;;;;;;;22.10;61.33;98539.34;5058374;28;20041;-96
2021/08/25 07:31:11;;;;;;;13.45;4.72;;;;;;;22.52;59.64;98571.31;5048556;28;20095;-95
2021/08/25 07:33:40;;;;;;;9.13;4.25;;;;;;;22.53;60.34;98551.38;5057722;28;20135;-95
2021/08/25 07:36:07;;;;;;;10.07;4.70;;;;;;;22.27;60.24;98556.13;5057557;28;20494;-92
2021/08/25 07:38:33;;;;;;;6.93;4.00;;;;;;;22.59;60.32;98567.13;5056876;28;20045;-96
2021/08/25 07:41:00;;;;;;;9.20;4.22;;;;;;;22.61;59.84;98550.75;5056877;28;20037;-95
2021/08/25 07:43:26;;;;;;;7.70;4.13;;;;;;;22.42;59.83;98567.63;5058645;28;20087;-94
2021/08/25 07:45:52;;;;;;;6.97;4.50;;;;;;;22.54;60.31;98574.78;5060363;28;20098;-94
2021/08/25 07:48:19;;;;;;;8.07;4.85;;;;;;;22.95;59.13;98566.03;5077937;28;20075;-94
2021/08/25 07:50:45;;;;;;;8.13;4.22;;;;;;;23.14;57.76;98556.44;5064893;28;20053;-94
2021/08/25 07:53:13;;;;;;;6.57;3.80;;;;;;;23.06;58.77;98559.75;5057733;28;20037;-93
2021/08/25 07:55:39;;;;;;;8.85;4.10;;;;;;;23.29;57.53;98554.28;5059041;28;20052;-95
2021/08/25 07:58:05;;;;;;;9.75;4.07;;;;;;;23.40;57.03;98565.13;5058483;28;20403;-94
2021/08/25 08:00:31;;;;;;;8.55;4.05;;;;;;;23.25;57.55;98575.41;5058207;28;20127;-95
2021/08/25 08:02:57;;;;;;;7.88;3.83;;;;;;;23.42;56.20;98565.88;5059104;28;20056;-95
2021/08/25 08:05:24;;;;;;;7.15;4.00;;;;;;;23.58;55.74;98536.44;5058042;28;20076;-95
2021/08/25 08:07:52;;;;;;;8.50;3.88;;;;;;;23.37;56.27;98560.78;5059916;28;20075;-93
2021/08/25 08:10:17;;;;;;;8.38;4.00;;;;;;;23.36;55.38;98545.53;5060075;28;20049;-95
2021/08/25 08:12:43;;;;;;;6.22;3.70;;;;;;;23.71;55.34;98565.28;5057861;28;20540;-93
2021/08/25 08:15:12;;;;;;;6.05;3.63;;;;;;;23.88;52.82;98534.00;5054927;28;20048;-94
2021/08/25 08:17:45;;;;;;;7.70;3.75;;;;;;;23.80;53.90;98547.38;5059245;28;20051;-95
2021/08/25 08:20:13;;;;;;;7.28;4.15;;;;;;;23.66;52.88;98549.38;5043938;28;20041;-95
2021/08/25 08:22:40;;;;;;;6.57;4.00;;;;;;;24.11;51.90;98556.44;5057739;28;20048;-96
2021/08/25 08:25:07;;;;;;;8.73;4.10;;;;;;;24.07;52.11;98555.00;5059397;28;20075;-95
2021/08/25 08:27:33;;;;;;;8.27;4.15;;;;;;;23.83;53.02;98537.09;5057826;28;20060;-96
2021/08/25 08:30:00;;;;;;;8.40;4.25;;;;;;;24.06;52.76;98526.97;5058730;28;20124;-95
2021/08/25 08:32:26;;;;;;;9.18;4.10;;;;;;;24.40;50.67;98562.94;5059636;28;20059;-94
2021/08/25 08:34:52;;;;;;;6.13;3.85;;;;;;;24.19;51.21;98538.50;5061905;28;20045;-95
2021/08/25 08:37:18;;;;;;;7.80;4.32;;;;;;;24.21;50.34;98538.38;5060176;28;20076;-94
2021/08/25 08:39:48;;;;;;;6.90;3.97;;;;;;;24.42;50.60;98553.78;5058754;28;20079;-95
2021/08/25 08:42:28;;;;;;;6.15;4.00;;;;;;;24.54;50.17;98553.59;5060652;28;20076;-95
2021/08/25 08:44:56;;;;;;;6.72;3.92;;;;;;;24.55;49.04;98540.88;5058780;28;20049;-94
2021/08/25 08:47:23;;;;;;;5.80;3.63;;;;;;;24.91;47.23;98542.16;5056354;28;20071;-95
2021/08/25 08:49:52;;;;;;;5.82;3.97;;;;;;;25.13;46.67;98546.50;5056882;28;20285;-95
2021/08/25 08:52:19;;;;;;;8.20;3.92;;;;;;;25.13;46.87;98538.34;5058795;28;20048;-96
2021/08/25 08:54:45;;;;;;;4.97;3.75;;;;;;;25.50;46.39;98545.91;5054248;28;20045;-96
2021/08/25 08:57:13;;;;;;;5.65;3.33;;;;;;;25.67;46.34;98544.34;5053563;28;20127;-96
2021/08/25 08:59:39;;;;;;;6.97;3.35;;;;;;;25.92;46.02;98533.94;5055175;28;20585;-93
2021/08/25 09:02:05;;;;;;;6.28;3.75;;;;;;;26.33;45.88;98534.56;5054093;28;20083;-93
2021/08/25 09:04:32;;;;;;;5.47;3.67;;;;;;;26.46;43.65;98558.75;5056117;28;20045;-95
2021/08/25 09:06:58;;;;;;;6.18;3.58;;;;;;;26.28;44.38;98534.13;5055518;28;20106;-95
2021/08/25 09:09:24;;;;;;;8.27;3.80;;;;;;;26.45;44.68;98530.66;5056430;28;20048;-95
2021/08/25 09:11:51;;;;;;;6.22;3.53;;;;;;;26.46;43.01;98532.38;5056186;28;20136;-93
2021/08/25 09:14:19;;;;;;;5.07;3.85;;;;;;;26.59;43.77;98553.91;5057146;28;20106;-93
2021/08/25 09:16:45;;;;;;;6.82;4.57;;;;;;;26.33;45.67;98549.06;5056409;28;20049;-94
2021/08/25 09:22:19;;;;;;;7.45;4.22;;;;;;;26.24;46.57;98566.31;5094031;27;20373;-96
2021/08/25 09:24:45;;;;;;;7.15;4.03;;;;;;;25.58;47.66;98558.81;5093741;28;20048;-95
2021/08/25 09:27:15;;;;;;;8.07;4.40;;;;;;;25.65;48.64;98550.94;5094375;28;20127;-95
2021/08/25 09:29:42;;;;;;;8.23;4.55;;;;;;;25.98;46.75;98538.78;5095193;28;20426;-95
2021/08/25 09:32:17;;;;;;;8.55;4.32;;;;;;;26.43;47.13;98549.03;5094069;28;20047;-95
2021/08/25 09:34:42;;;;;;;6.55;3.95;;;;;;;26.64;45.86;98559.75;5075542;28;20067;-94
2021/08/25 09:37:10;;;;;;;8.23;3.92;;;;;;;26.23;46.49;98540.03;5087157;28;20048;-95
2021/08/25 09:39:43;;;;;;;6.55;4.20;;;;;;;26.43;45.52;98555.31;5094694;28;20064;-94
2021/08/25 09:42:09;;;;;;;5.85;3.95;;;;;;;26.47;45.30;98538.69;5095252;28;20520;-95
2021/08/25 09:44:35;;;;;;;6.32;3.90;;;;;;;26.61;45.21;98554.63;5094305;28;20037;-95
2021/08/25 09:47:01;;;;;;;8.88;4.30;;;;;;;26.23;45.10;98518.22;5095496;28;20040;-95
2021/08/25 09:49:27;;;;;;;6.75;4.22;;;;;;;26.60;45.32;98531.91;5094223;28;20147;-95
2021/08/25 09:51:54;;;;;;;5.20;3.90;;;;;;;26.92;43.22;98527.06;5111887;28;20134;-94
2021/08/25 09:54:21;;;;;;;6.43;3.85;;;;;;;27.09;44.57;98528.09;5097211;28;20048;-96
2021/08/25 09:56:52;;;;;;;6.50;4.22;;;;;;;26.49;44.30;98507.53;5095938;28;20067;-95
2021/08/25 09:59:18;;;;;;;4.93;3.70;;;;;;;26.82;43.38;98516.19;5103382;28;20104;-95
2021/08/25 10:01:45;;;;;;;6.35;4.10;;;;;;;27.04;43.88;98507.59;5108986;28;20067;-96
2021/08/25 10:04:14;;;;;;;6.03;4.07;;;;;;;27.50;43.74;98521.28;5093984;28;20066;-96
2021/08/25 10:06:41;;;;;;;6.55;3.90;;;;;;;27.48;43.45;98508.75;5095336;28;20068;-96
2021/08/25 10:09:09;;;;;;;6.68;3.97;;;;;;;27.30;42.43;98526.00;5095521;28;20051;-95
2021/08/25 10:11:39;;;;;;;8.02;4.22;;;;;;;26.62;43.75;98515.41;5095763;28;20029;-91
2021/08/25 10:14:11;;;;;;;6.50;3.93;;;;;;;26.86;44.44;98501.22;5093728;28;20127;-94
2021/08/25 10:16:39;;;;;;;5.82;3.85;;;;;;;27.28;43.09;98514.38;5093069;28;20127;-95
2021/08/25 10:19:24;;;;;;;;;;;;;;;27.46;42.18;98517.13;5093772;28;20558;-96
2021/08/25 10:21:50;;;;;;;7.20;3.70;;;;;;;26.38;43.95;98481.31;5092212;28;19928;-96
2021/08/25 10:24:17;;;;;;;4.90;3.45;;;;;;;26.76;42.93;98474.03;5093642;28;20054;-95
2021/08/25 10:27:08;;;;;;;7.97;3.80;;;;;;;26.90;42.51;98508.09;5092979;28;20497;-95
2021/08/25 10:30:10;;;;;;;5.45;3.40;;;;;;;27.15;41.47;98501.09;5095973;28;20119;-93
2021/08/25 10:32:38;;;;;;;5.93;3.30;;;;;;;27.21;40.06;98464.97;5065383;28;20045;-95
2021/08/25 10:35:18;;;;;;;5.32;3.50;;;;;;;26.87;40.75;98472.94;5061673;28;20045;-93
2021/08/25 10:37:46;;;;;;;9.93;3.50;;;;;;;26.55;42.08;98473.38;5079576;28;20116;-93
2021/08/25 10:40:13;;;;;;;6.28;3.42;;;;;;;26.56;41.51;98458.75;5079449;28;20044;-95
2021/08/25 10:42:44;;;;;;;6.25;3.45;;;;;;;26.72;41.21;98453.50;5078770;28;20041;-95
2021/08/25 10:45:12;;;;;;;5.28;3.30;;;;;;;26.96;40.17;98460.25;5070263;28;20048;-95
2021/08/25 10:47:54;;;;;;;;;;;;;;;27.24;38.85;98482.94;5078635;28;20037;-94
2021/08/25 10:50:20;;;;;;;5.10;3.20;;;;;;;27.15;38.77;98462.88;5079349;28;19921;-93
2021/08/25 10:52:46;;;;;;;5.25;3.17;;;;;;;27.15;38.58;98453.78;5078922;28;20036;-95
2021/08/25 10:55:11;;;;;;;4.78;3.45;;;;;;;27.33;38.76;98453.84;5077541;28;20051;-95
2021/08/25 10:57:43;;;;;;;6.28;3.40;;;;;;;27.52;38.32;98455.56;5077899;28;20056;-93
2021/08/25 11:00:13;;;;;;;7.15;3.10;;;;;;;27.50;37.24;98454.84;5079160;28;20049;-94
2021/08/25 11:02:39;;;;;;;5.05;3.03;;;;;;;27.42;37.67;98433.81;5065929;28;20044;-95
2021/08/25 11:05:06;;;;;;;5.88;3.38;;;;;;;27.21;37.79;98429.50;5077734;28;20383;-94
2021/08/25 11:07:41;;;;;;;5.93;3.35;;;;;;;27.34;38.38;98440.03;5078565;28;20044;-93
2021/08/25 11:10:07;;;;;;;5.70;3.33;;;;;;;27.07;37.66;98438.22;5078080;28;20045;-93
2021/08/25 11:12:33;;;;;;;5.20;3.05;;;;;;;27.11;38.34;98449.66;5077908;28;20433;-95
2021/08/25 11:14:59;;;;;;;6.78;3.05;;;;;;;26.70;38.41;98435.56;5078460;28;20040;-93
2021/08/25 11:17:27;;;;;;;6.78;3.05;;;;;;;26.52;38.78;98411.78;5078389;28;20501;-94
2021/08/25 11:19:55;;;;;;;4.72;3.20;;;;;;;26.51;39.75;98431.03;5078519;28;21523;-95
2021/08/25 11:22:22;;;;;;;5.45;3.00;;;;;;;26.46;39.82;98419.72;5079439;28;20044;-94
2021/08/25 11:24:51;;;;;;;5.17;3.20;;;;;;;26.60;39.67;98425.56;5077938;28;20397;-94
2021/08/25 11:27:22;;;;;;;6.22;2.90;;;;;;;26.91;38.98;98432.56;5080717;28;20055;-94
2021/08/25 11:30:12;;;;;;;5.07;3.17;;;;;;;27.20;39.42;98416.84;5077712;28;20079;-95
2021/08/25 11:32:45;;;;;;;5.13;3.03;;;;;;;27.18;37.35;98407.94;5058496;28;20064;-94
2021/08/25 11:35:13;;;;;;;6.82;3.40;;;;;;;27.11;38.47;98427.81;5078651;28;20095;-95
2021/08/25 11:37:42;;;;;;;5.80;3.20;;;;;;;27.44;38.06;98420.84;5079537;28;20094;-95
2021/08/25 11:40:09;;;;;;;6.88;3.13;;;;;;;27.92;36.79;98418.69;5077431;28;20143;-95
2021/08/25 11:42:36;;;;;;;4.55;3.00;;;;;;;27.95;35.62;98426.56;5078058;28;20132;-95